Walled Lake, Michigan
Current Conditions -  °F | °C
As of 6:53 PM on Wednesday 28 Jan 2015 (Local Time) from KPTK Reporting Station
Overcast Overcast  
Wind Chill: -9°   Ceiling: 13000
Heat Index: -4°   Visibility: 10mi
Dew Point: -10°   Wind: 8mph
Humidity: 63%   Direction: 170°S
Pressure: 30.2"   Gusts: NA
Location:  42.54°N, 83.47°W
Report Text: KPTK 282353Z 17007KT 10SM BKN130 OVC240 M04/M10 A3020 RMK AO2 SLP246 4/001 T10391100 11011 21039 56007
Loading
Personal Weather Stations






























Interactive Weather Map New forecast layout! Learn more

10-Day Weather Forecast

Advertisements
Track Severe Weather on mobile